createdAt,value
2018-09-22T00:00:39.342Z,101288.00
2018-09-22T00:05:32.588Z,101288.00
2018-09-22T00:10:25.934Z,101295.00
2018-09-22T00:15:19.279Z,101302.00
2018-09-22T00:20:12.507Z,101302.00
2018-09-22T00:25:05.796Z,101313.00
2018-09-22T00:29:58.999Z,101321.00
2018-09-22T00:34:52.254Z,101326.00
2018-09-22T00:39:45.467Z,101334.00
2018-09-22T00:44:38.698Z,101321.00
2018-09-22T00:49:31.946Z,101337.00
2018-09-22T00:54:25.192Z,101340.00
2018-09-22T00:59:19.141Z,101347.00
2018-09-22T01:04:12.429Z,101348.00
2018-09-22T01:09:07.636Z,101347.00
2018-09-22T01:14:00.879Z,101353.00
2018-09-22T01:18:54.121Z,101363.00
2018-09-22T01:23:47.379Z,101370.00
2018-09-22T01:28:41.082Z,101368.00
2018-09-22T01:33:34.293Z,101377.00
2018-09-22T01:38:27.533Z,101378.00
2018-09-22T01:43:21.755Z,101387.00
2018-09-22T01:48:15.206Z,101393.00
2018-09-22T01:53:08.460Z,101399.00
2018-09-22T01:58:01.740Z,101401.00
2018-09-22T02:02:54.939Z,101396.00
2018-09-22T02:07:48.235Z,101402.00
2018-09-22T02:12:42.132Z,101401.00
2018-09-22T02:17:35.725Z,101407.00
2018-09-22T02:22:29.385Z,101425.00
2018-09-22T02:27:22.615Z,101422.00
2018-09-22T02:32:15.947Z,101425.00
2018-09-22T02:37:09.184Z,101418.00
2018-09-22T02:42:02.433Z,101429.00
2018-09-22T02:46:55.685Z,101429.00
2018-09-22T02:51:48.921Z,101417.00
2018-09-22T02:56:42.218Z,101419.00
2018-09-22T03:01:35.501Z,101420.00
2018-09-22T03:06:28.746Z,101438.00
2018-09-22T03:11:22.021Z,101426.00
2018-09-22T03:16:15.291Z,101434.00
2018-09-22T03:21:08.563Z,101432.00
2018-09-22T03:26:01.820Z,101434.00
2018-09-22T03:30:55.074Z,101442.00
2018-09-22T03:35:48.331Z,101447.00
2018-09-22T03:40:42.492Z,101443.00
2018-09-22T03:45:35.741Z,101442.00
2018-09-22T03:50:29.026Z,101456.00
2018-09-22T03:55:22.999Z,101449.00
2018-09-22T04:00:16.217Z,101451.00
2018-09-22T04:05:09.458Z,101445.00
2018-09-22T04:10:02.764Z,101448.00
2018-09-22T04:14:57.143Z,101451.00
2018-09-22T04:19:50.964Z,101462.00
2018-09-22T04:24:44.326Z,101471.00
2018-09-22T04:29:38.251Z,101471.00
2018-09-22T04:34:32.379Z,101476.00
2018-09-22T04:39:25.673Z,101477.00
2018-09-22T04:44:18.987Z,101483.00
2018-09-22T04:49:12.250Z,101484.00
2018-09-22T04:54:05.551Z,101485.00
2018-09-22T04:58:58.803Z,101499.00
2018-09-22T05:03:52.691Z,101500.00
2018-09-22T05:08:46.712Z,101499.00
2018-09-22T05:13:39.979Z,101493.00
2018-09-22T05:18:34.543Z,101505.00
2018-09-22T05:23:27.807Z,101512.00
2018-09-22T05:28:21.100Z,101520.00
2018-09-22T05:33:15.011Z,101528.00
2018-09-22T05:38:08.295Z,101537.00
2018-09-22T05:43:02.295Z,101543.00
2018-09-22T05:47:56.110Z,101546.00
2018-09-22T05:52:49.389Z,101558.00
2018-09-22T05:57:42.633Z,101559.00
2018-09-22T06:02:35.910Z,101557.00
2018-09-22T06:07:29.254Z,101555.00
2018-09-22T06:12:22.516Z,101553.00
2018-09-22T06:17:15.754Z,101559.00
2018-09-22T06:22:09.013Z,101568.00
2018-09-22T06:27:02.285Z,101566.00
2018-09-22T06:31:55.623Z,101564.00
2018-09-22T06:36:48.860Z,101539.00
2018-09-22T06:41:42.098Z,101538.00
2018-09-22T06:46:35.417Z,101531.00
2018-09-22T06:51:28.843Z,101528.00
2018-09-22T06:56:22.051Z,101533.00
2018-09-22T07:01:15.277Z,101545.00
2018-09-22T07:06:08.761Z,101556.00
2018-09-22T07:11:02.261Z,101532.00
2018-09-22T07:15:55.551Z,101546.00
2018-09-22T07:20:54.474Z,101546.00
2018-09-22T07:25:47.748Z,101563.00
2018-09-22T07:30:41.098Z,101562.00
2018-09-22T07:35:34.459Z,101568.00
2018-09-22T07:40:27.714Z,101568.00
2018-09-22T07:45:21.679Z,101580.00
2018-09-22T07:50:14.996Z,101576.00
2018-09-22T07:55:08.272Z,101569.00
2018-09-22T08:00:01.551Z,101565.00
2018-09-22T08:04:54.827Z,101561.00
2018-09-22T08:09:48.073Z,101563.00
2018-09-22T08:14:41.343Z,101574.00
2018-09-22T08:19:34.567Z,101583.00
2018-09-22T08:24:27.835Z,101587.00
2018-09-22T08:29:21.074Z,101593.00
2018-09-22T08:34:14.323Z,101591.00
2018-09-22T08:39:10.018Z,101576.00
2018-09-22T08:44:03.397Z,101572.00
2018-09-22T08:48:56.583Z,101576.00
2018-09-22T08:53:49.824Z,101589.00
2018-09-22T08:58:43.152Z,101580.00
2018-09-22T09:03:36.389Z,101555.00
2018-09-22T09:08:29.757Z,101558.00
2018-09-22T09:13:23.073Z,101544.00
2018-09-22T09:18:16.978Z,101543.00
2018-09-22T09:23:10.289Z,101559.00
2018-09-22T09:28:03.559Z,101564.00
2018-09-22T09:32:56.831Z,101569.00
2018-09-22T09:37:50.990Z,101545.00
2018-09-22T09:42:44.256Z,101522.00
2018-09-22T09:47:37.483Z,101510.00
2018-09-22T09:52:30.786Z,101530.00
2018-09-22T09:57:24.059Z,101507.00
2018-09-22T10:02:17.863Z,101496.00
2018-09-22T10:07:11.097Z,101483.00
2018-09-22T10:12:04.463Z,101486.00
2018-09-22T10:16:57.719Z,101487.00
2018-09-22T10:21:51.073Z,101477.00
2018-09-22T10:26:44.370Z,101467.00
2018-09-22T10:31:37.701Z,101455.00
2018-09-22T10:36:31.029Z,101454.00
2018-09-22T10:41:24.304Z,101456.00
2018-09-22T10:46:18.362Z,101459.00
2018-09-22T10:51:11.876Z,101457.00
2018-09-22T10:56:05.144Z,101446.00
2018-09-22T11:00:58.427Z,101448.00
2018-09-22T11:05:51.735Z,101454.00
2018-09-22T11:10:44.975Z,101461.00
2018-09-22T11:15:38.339Z,101456.00
2018-09-22T11:20:31.580Z,101453.00
2018-09-22T11:25:24.849Z,101453.00
2018-09-22T11:30:18.123Z,101456.00
2018-09-22T11:35:15.593Z,101455.00
2018-09-22T11:40:08.835Z,101447.00
2018-09-22T11:45:02.110Z,101431.00
2018-09-22T11:49:55.407Z,101418.00
2018-09-22T11:54:48.676Z,101414.00
2018-09-22T11:59:41.919Z,101415.00
2018-09-22T12:04:35.191Z,101418.00
2018-09-22T12:09:28.457Z,101424.00
2018-09-22T12:14:22.344Z,101416.00
2018-09-22T12:19:15.638Z,101405.00
2018-09-22T12:24:09.169Z,101406.00
2018-09-22T12:29:02.448Z,101399.00
2018-09-22T12:33:55.695Z,101397.00
2018-09-22T12:38:49.565Z,101380.00
2018-09-22T12:43:42.849Z,101403.00
2018-09-22T12:48:36.127Z,101412.00
2018-09-22T12:53:29.443Z,101397.00
2018-09-22T12:58:23.646Z,101400.00
2018-09-22T13:03:16.976Z,101405.00
2018-09-22T13:08:10.230Z,101425.00
2018-09-22T13:13:03.499Z,101438.00
2018-09-22T13:17:56.747Z,101428.00
2018-09-22T13:22:50.208Z,101428.00
2018-09-22T13:27:43.469Z,101443.00
2018-09-22T13:32:36.859Z,101457.00
2018-09-22T13:37:30.109Z,101459.00
2018-09-22T13:42:23.377Z,101457.00
2018-09-22T13:47:16.600Z,101478.00
2018-09-22T13:52:09.860Z,101491.00
2018-09-22T13:57:03.169Z,101516.00
2018-09-22T14:01:56.449Z,101521.00
2018-09-22T14:06:49.727Z,101526.00
2018-09-22T14:11:42.992Z,101517.00
2018-09-22T14:16:36.267Z,101530.00
2018-09-22T14:21:29.563Z,101508.00
2018-09-22T14:26:22.836Z,101488.00
2018-09-22T14:31:16.755Z,101460.00
2018-09-22T14:36:10.017Z,101461.00
2018-09-22T14:41:03.315Z,101461.00
2018-09-22T14:45:57.269Z,101454.00
2018-09-22T14:50:51.056Z,101457.00
2018-09-22T14:55:44.482Z,101463.00
2018-09-22T15:00:37.764Z,101461.00
2018-09-22T15:05:30.980Z,101461.00
2018-09-22T15:10:24.246Z,101449.00
2018-09-22T15:15:17.513Z,101456.00
2018-09-22T15:20:10.761Z,101442.00
2018-09-22T15:25:04.047Z,101440.00
2018-09-22T15:29:57.385Z,101440.00
2018-09-22T15:34:50.625Z,101438.00
2018-09-22T15:39:43.865Z,101443.00
2018-09-22T15:44:37.528Z,101429.00
2018-09-22T15:49:30.862Z,101428.00
2018-09-22T15:54:24.185Z,101426.00
2018-09-22T15:59:17.447Z,101435.00
2018-09-22T16:04:10.700Z,101435.00
2018-09-22T16:09:06.487Z,101446.00
2018-09-22T16:14:00.374Z,101456.00
2018-09-22T16:18:53.618Z,101451.00
2018-09-22T16:23:47.025Z,101453.00
2018-09-22T16:28:40.263Z,101438.00
2018-09-22T16:33:33.509Z,101431.00
2018-09-22T16:38:27.349Z,101425.00
2018-09-22T16:43:20.623Z,101436.00
2018-09-22T16:48:13.895Z,101436.00
2018-09-22T16:53:08.118Z,101436.00
2018-09-22T16:58:01.443Z,101431.00
2018-09-22T17:02:54.700Z,101429.00
2018-09-22T17:07:47.912Z,101422.00
2018-09-22T17:12:41.157Z,101423.00
2018-09-22T17:17:34.489Z,101430.00
2018-09-22T17:22:27.731Z,101411.00
2018-09-22T17:27:21.037Z,101413.00
2018-09-22T17:32:14.254Z,101417.00
2018-09-22T17:37:07.514Z,101406.00
2018-09-22T17:42:00.761Z,101415.00
2018-09-22T17:46:54.028Z,101412.00
2018-09-22T17:51:47.257Z,101422.00
2018-09-22T17:56:40.801Z,101424.00
2018-09-22T18:01:34.065Z,101418.00
2018-09-22T18:06:27.365Z,101417.00
2018-09-22T18:11:20.617Z,101417.00
2018-09-22T18:16:13.860Z,101412.00
2018-09-22T18:21:07.456Z,101413.00
2018-09-22T18:26:00.719Z,101424.00
2018-09-22T18:30:53.993Z,101437.00
2018-09-22T18:35:47.288Z,101432.00
2018-09-22T18:40:40.615Z,101427.00
2018-09-22T18:45:33.895Z,101424.00
2018-09-22T18:50:27.168Z,101430.00
2018-09-22T18:55:20.430Z,101425.00
2018-09-22T19:00:13.696Z,101440.00
2018-09-22T19:05:06.990Z,101450.00
2018-09-22T19:10:00.278Z,101448.00
2018-09-22T19:15:07.650Z,101448.00
2018-09-22T19:20:06.537Z,101445.00
2018-09-22T19:25:04.801Z,101432.00
2018-09-22T19:30:38.196Z,101440.00
2018-09-22T19:35:35.077Z,101428.00
2018-09-22T19:40:32.804Z,101422.00
2018-09-22T19:45:29.924Z,101435.00
2018-09-22T19:50:33.217Z,101428.00
2018-09-22T19:55:26.449Z,101415.00
2018-09-22T20:00:19.744Z,101416.00
2018-09-22T20:05:12.995Z,101422.00
2018-09-22T20:10:06.363Z,101398.00
2018-09-22T20:14:59.599Z,101408.00
2018-09-22T20:19:53.092Z,101415.00
2018-09-22T20:24:46.382Z,101425.00
2018-09-22T20:29:39.969Z,101394.00
2018-09-22T20:34:33.245Z,101394.00
2018-09-22T20:39:26.479Z,101383.00
2018-09-22T20:44:19.746Z,101389.00
2018-09-22T20:49:13.028Z,101373.00
2018-09-22T20:54:06.455Z,101359.00
2018-09-22T20:58:59.733Z,101369.00
2018-09-22T21:03:52.995Z,101363.00
2018-09-22T21:08:46.241Z,101362.00
2018-09-22T21:13:39.508Z,101356.00
2018-09-22T21:18:32.721Z,101341.00
2018-09-22T21:23:26.707Z,101331.00
2018-09-22T21:28:20.009Z,101334.00
2018-09-22T21:33:13.295Z,101325.00
2018-09-22T21:38:07.159Z,101321.00
2018-09-22T21:43:00.508Z,101324.00
2018-09-22T21:47:53.796Z,101315.00
2018-09-22T21:52:47.029Z,101312.00
2018-09-22T21:57:40.752Z,101315.00
2018-09-22T22:02:33.981Z,101316.00
2018-09-22T22:07:27.488Z,101313.00
2018-09-22T22:12:20.775Z,101301.00
2018-09-22T22:17:14.087Z,101301.00
2018-09-22T22:22:07.413Z,101290.00
2018-09-22T22:27:00.688Z,101263.00
2018-09-22T22:31:53.966Z,101250.00
2018-09-22T22:36:47.207Z,101248.00
2018-09-22T22:41:40.491Z,101237.00
2018-09-22T22:46:33.758Z,101227.00
2018-09-22T22:51:27.115Z,101241.00
2018-09-22T22:56:20.369Z,101234.00
2018-09-22T23:01:13.643Z,101248.00
2018-09-22T23:06:06.906Z,101247.00
2018-09-22T23:11:00.167Z,101238.00
2018-09-22T23:15:53.417Z,101221.00
2018-09-22T23:20:46.673Z,101211.00
2018-09-22T23:25:39.916Z,101194.00
2018-09-22T23:30:33.141Z,101192.00
2018-09-22T23:35:26.417Z,101180.00
2018-09-22T23:40:19.677Z,101175.00
2018-09-22T23:45:12.921Z,101161.00
2018-09-22T23:50:06.239Z,101169.00
2018-09-22T23:54:59.673Z,101156.00
2018-09-22T23:59:52.988Z,101162.00
